Terminal Aerodrome Forecast
Issued by NWS

Home | Current Version | Previous Version | Text Only | Print | Product List | Glossary On
Versions: 1 2 3 4 5 6 7 8 9 10 11 12 13 14 15 16 17 18 19 20 21 22 23 24
000
FTUS46 KSEW 262332
TAFSEA
TAF
KSEA 262332Z 2700/2806 23011KT P6SM SCT040 BKN060 BKN120
     FM270400 24012KT P6SM VCSH OVC040
     FM270700 19013KT P6SM VCSH OVC035
     FM271200 19010KT P6SM VCSH OVC025
     FM271400 20012KT P6SM VCSH OVC035
     FM272100 22011KT P6SM VCSH BKN035=

USA.gov is the U.S. government's official web portal to all federal, state and local government web resources and services.